createdAt,value
2018-12-14T00:01:44.506Z,11.23
2018-12-14T00:04:14.610Z,10.70
2018-12-14T00:07:01.486Z,13.80
2018-12-14T00:09:32.792Z,11.57
2018-12-14T00:12:13.441Z,11.73
2018-12-14T00:14:48.143Z,12.00
2018-12-14T00:17:20.423Z,11.80
2018-12-14T00:19:54.665Z,11.87
2018-12-14T00:22:30.731Z,12.07
2018-12-14T00:28:09.679Z,12.47
2018-12-14T00:30:47.853Z,10.50
2018-12-14T00:33:21.681Z,12.13
2018-12-14T00:35:55.747Z,10.47
2018-12-14T00:38:27.255Z,12.07
2018-12-14T00:41:01.641Z,12.23
2018-12-14T00:46:36.770Z,11.93
2018-12-14T00:49:11.248Z,11.87
2018-12-14T00:51:43.097Z,14.87
2018-12-14T00:54:17.297Z,11.60
2018-12-14T00:56:55.747Z,11.00
2018-12-14T00:59:27.592Z,11.97
2018-12-14T01:01:59.162Z,13.10
2018-12-14T01:04:30.933Z,11.53
2018-12-14T01:10:04.866Z,9.93
2018-12-14T01:12:36.424Z,12.00
2018-12-14T01:15:08.709Z,12.03
2018-12-14T01:17:45.251Z,10.10
2018-12-14T01:20:19.829Z,11.00
2018-12-14T01:22:58.426Z,10.17
2018-12-14T01:25:38.914Z,11.93
2018-12-14T01:28:10.165Z,8.43
2018-12-14T01:30:50.317Z,11.37
2018-12-14T01:33:31.385Z,10.63
2018-12-14T01:36:05.824Z,10.60
2018-12-14T01:38:43.501Z,10.73
2018-12-14T01:41:18.454Z,10.17
2018-12-14T01:43:52.549Z,11.40
2018-12-14T01:46:24.047Z,10.23
2018-12-14T01:48:56.423Z,10.87
2018-12-14T01:51:31.118Z,11.03
2018-12-14T01:54:02.753Z,10.00
2018-12-14T01:56:38.407Z,10.77
2018-12-14T01:59:12.533Z,10.60
2018-12-14T02:01:50.829Z,10.57
2018-12-14T02:04:24.898Z,10.50
2018-12-14T02:07:01.618Z,10.90
2018-12-14T02:09:33.163Z,10.17
2018-12-14T02:12:11.201Z,9.37
2018-12-14T02:14:42.152Z,10.97
2018-12-14T02:17:12.305Z,11.07
2018-12-14T02:19:44.755Z,10.93
2018-12-14T02:22:16.681Z,11.23
2018-12-14T02:24:54.328Z,12.00
2018-12-14T02:27:28.575Z,10.33
2018-12-14T02:29:58.131Z,11.13
2018-12-14T02:32:29.960Z,10.93
2018-12-14T02:35:08.192Z,11.03
2018-12-14T02:40:17.812Z,12.50
2018-12-14T02:42:49.430Z,10.90
2018-12-14T02:45:24.020Z,11.67
2018-12-14T02:47:55.790Z,10.17
2018-12-14T02:50:31.946Z,10.23
2018-12-14T02:53:05.883Z,10.87
2018-12-14T02:55:35.342Z,10.83
2018-12-14T02:58:13.339Z,11.87
2018-12-14T03:00:57.546Z,11.50
2018-12-14T03:03:31.925Z,11.70
2018-12-14T03:06:06.086Z,11.73
2018-12-14T03:08:37.857Z,11.30
2018-12-14T03:11:08.262Z,11.93
2018-12-14T03:13:42.801Z,10.63
2018-12-14T03:16:17.437Z,11.50
2018-12-14T03:19:03.711Z,12.50
2018-12-14T03:21:35.376Z,11.53
2018-12-14T03:27:11.399Z,11.50
2018-12-14T03:29:47.452Z,11.67
2018-12-14T03:32:18.922Z,11.93
2018-12-14T03:34:51.111Z,11.20
2018-12-14T03:40:18.543Z,12.20
2018-12-14T03:42:49.957Z,12.03
2018-12-14T03:45:24.306Z,12.97
2018-12-14T03:50:57.249Z,10.13
2018-12-14T03:53:28.820Z,10.73
2018-12-14T03:55:58.829Z,12.53
2018-12-14T03:58:30.112Z,11.90
2018-12-14T04:03:55.889Z,11.60
2018-12-14T04:06:30.237Z,11.93
2018-12-14T04:09:11.435Z,12.63
2018-12-14T04:11:41.587Z,12.10
2018-12-14T04:14:22.109Z,12.60
2018-12-14T04:16:54.314Z,12.27
2018-12-14T04:19:26.527Z,13.53
2018-12-14T04:21:56.392Z,12.00
2018-12-14T04:24:30.838Z,12.23
2018-12-14T04:27:04.741Z,12.53
2018-12-14T04:29:34.070Z,12.97
2018-12-14T04:32:03.320Z,13.10
2018-12-14T04:37:30.046Z,12.27
2018-12-14T04:40:04.301Z,11.93
2018-12-14T04:42:35.913Z,12.07
2018-12-14T04:45:10.101Z,12.33
2018-12-14T04:47:42.029Z,12.50
2018-12-14T04:50:18.681Z,11.87
2018-12-14T04:52:59.457Z,12.07
2018-12-14T04:55:38.180Z,10.93
2018-12-14T04:58:16.166Z,12.83
2018-12-14T05:00:48.588Z,12.67
2018-12-14T05:03:20.778Z,11.50
2018-12-14T05:05:52.469Z,11.40
2018-12-14T05:08:22.489Z,12.10
2018-12-14T05:10:56.980Z,12.17
2018-12-14T05:13:28.743Z,11.87
2018-12-14T05:15:58.955Z,10.97
2018-12-14T05:18:30.773Z,11.57
2018-12-14T05:21:11.601Z,12.83
2018-12-14T05:23:50.017Z,12.13
2018-12-14T05:26:24.039Z,12.60
2018-12-14T05:31:53.292Z,13.50
2018-12-14T05:34:22.952Z,13.63
2018-12-14T05:36:58.724Z,12.50
2018-12-14T05:39:30.860Z,11.47
2018-12-14T05:45:02.532Z,10.40
2018-12-14T05:50:07.621Z,10.47
2018-12-14T05:52:42.964Z,11.37
2018-12-14T05:55:14.640Z,10.27
2018-12-14T05:57:48.767Z,10.47
2018-12-14T06:03:25.470Z,11.90
2018-12-14T06:05:54.924Z,10.37
2018-12-14T06:08:29.710Z,9.67
2018-12-14T06:13:54.525Z,9.93
2018-12-14T06:16:26.688Z,9.50
2018-12-14T06:24:52.749Z,9.97
2018-12-14T06:27:24.792Z,9.33
2018-12-14T06:29:58.768Z,9.63
2018-12-14T06:32:43.733Z,10.20
2018-12-14T06:35:17.985Z,10.40
2018-12-14T06:40:52.824Z,9.83
2018-12-14T06:43:37.949Z,10.20
2018-12-14T06:46:09.485Z,13.73
2018-12-14T06:48:52.313Z,10.03
2018-12-14T06:51:22.141Z,10.70
2018-12-14T06:53:54.443Z,8.97
2018-12-14T06:56:29.213Z,10.00
2018-12-14T06:58:59.544Z,9.87
2018-12-14T07:01:31.732Z,10.47
2018-12-14T07:04:03.936Z,11.47
2018-12-14T07:06:36.283Z,8.87
2018-12-14T07:09:12.532Z,10.13
2018-12-14T07:11:46.605Z,8.63
2018-12-14T07:14:18.332Z,9.20
2018-12-14T07:16:53.068Z,11.57
2018-12-14T07:19:22.255Z,10.23
2018-12-14T07:21:59.328Z,10.10
2018-12-14T07:24:35.976Z,11.00
2018-12-14T07:27:05.508Z,10.27
2018-12-14T07:32:38.154Z,9.53
2018-12-14T07:35:10.642Z,8.17
2018-12-14T07:37:49.461Z,9.23
2018-12-14T07:40:19.718Z,9.23
2018-12-14T07:42:54.350Z,11.77
2018-12-14T07:45:32.561Z,12.73
2018-12-14T07:48:04.462Z,7.77
2018-12-14T07:50:36.133Z,10.30
2018-12-14T07:53:21.154Z,9.23
2018-12-14T07:55:53.321Z,10.43
2018-12-14T07:58:21.848Z,9.60
2018-12-14T08:00:50.284Z,9.67
2018-12-14T08:03:37.033Z,8.70
2018-12-14T08:06:19.186Z,9.03
2018-12-14T08:08:53.338Z,9.20
2018-12-14T08:11:38.272Z,7.83
2018-12-14T08:14:06.943Z,7.50
2018-12-14T08:16:35.452Z,8.97
2018-12-14T08:19:03.651Z,8.03
2018-12-14T08:21:45.665Z,9.77
2018-12-14T08:24:13.856Z,8.43
2018-12-14T08:26:42.344Z,8.33
2018-12-14T08:29:13.857Z,8.13
2018-12-14T08:31:58.278Z,9.30
2018-12-14T08:34:26.683Z,9.60
2018-12-14T08:36:55.223Z,8.97
2018-12-14T08:39:30.442Z,9.73
2018-12-14T08:42:17.630Z,9.17
2018-12-14T08:44:45.844Z,10.23
2018-12-14T08:47:14.471Z,9.07
2018-12-14T08:49:42.657Z,10.03
2018-12-14T08:58:05.545Z,10.40
2018-12-14T09:00:33.733Z,8.27
2018-12-14T09:03:02.224Z,9.40
2018-12-14T09:05:30.641Z,9.63
2018-12-14T09:07:59.046Z,10.17
2018-12-14T09:10:27.319Z,8.57
2018-12-14T09:12:55.752Z,9.57
2018-12-14T09:15:24.588Z,10.00
2018-12-14T09:17:53.124Z,8.97
2018-12-14T09:26:21.084Z,9.73
2018-12-14T09:28:49.586Z,9.90
2018-12-14T09:31:18.393Z,6.97
2018-12-14T09:33:46.692Z,7.97
2018-12-14T09:36:35.291Z,10.33
2018-12-14T09:39:05.495Z,9.77
2018-12-14T09:41:34.122Z,9.93
2018-12-14T09:44:04.228Z,9.73
2018-12-14T09:46:38.081Z,9.37
2018-12-14T09:49:06.295Z,8.10
2018-12-14T09:51:40.053Z,9.60
2018-12-14T09:54:08.593Z,9.93
2018-12-14T09:56:36.808Z,10.60
2018-12-14T10:02:11.289Z,9.20
2018-12-14T10:07:46.839Z,9.70
2018-12-14T10:10:17.041Z,8.77
2018-12-14T10:15:44.518Z,8.90
2018-12-14T10:18:18.322Z,10.20
2018-12-14T10:20:52.164Z,9.33
2018-12-14T10:23:26.140Z,9.23
2018-12-14T10:26:04.157Z,9.00
2018-12-14T10:28:35.768Z,9.87
2018-12-14T10:31:10.032Z,8.93
2018-12-14T10:33:43.987Z,6.57
2018-12-14T10:36:21.702Z,8.50
2018-12-14T10:38:56.920Z,8.47
2018-12-14T10:44:31.341Z,8.27
2018-12-14T10:47:05.284Z,9.30
2018-12-14T10:49:39.922Z,8.83
2018-12-14T10:52:13.973Z,8.20
2018-12-14T10:55:05.150Z,7.53
2018-12-14T11:03:34.562Z,8.23
2018-12-14T11:06:08.638Z,10.97
2018-12-14T11:08:36.881Z,9.67
2018-12-14T11:14:13.755Z,8.57
2018-12-14T11:16:43.578Z,8.57
2018-12-14T11:19:28.710Z,8.50
2018-12-14T11:22:02.635Z,7.03
2018-12-14T11:27:49.195Z,8.00
2018-12-14T11:30:23.450Z,10.23
2018-12-14T11:38:47.022Z,8.73
2018-12-14T11:41:28.382Z,10.80
2018-12-14T11:43:57.089Z,12.83
2018-12-14T11:46:31.050Z,8.63
2018-12-14T11:49:05.125Z,8.80
2018-12-14T11:51:47.894Z,11.77
2018-12-14T11:54:17.490Z,8.33
2018-12-14T11:56:49.074Z,9.33
2018-12-14T11:59:17.405Z,7.57
2018-12-14T12:01:49.224Z,74.00
2018-12-14T12:04:21.440Z,39.87
2018-12-14T12:09:52.278Z,8.30
2018-12-14T12:12:26.289Z,9.13
2018-12-14T12:14:56.790Z,8.40
2018-12-14T12:20:23.508Z,10.43
2018-12-14T12:22:59.467Z,9.57
2018-12-14T12:25:27.664Z,13.13
2018-12-14T12:31:02.556Z,11.40
2018-12-14T12:33:45.177Z,9.87
2018-12-14T12:36:14.989Z,10.63
2018-12-14T12:38:53.433Z,15.07
2018-12-14T12:41:24.977Z,11.97
2018-12-14T12:49:54.386Z,30.00
2018-12-14T12:52:32.323Z,33.10
2018-12-14T12:55:10.347Z,32.87
2018-12-14T13:00:37.005Z,16.97
2018-12-14T13:03:21.223Z,7.57
2018-12-14T13:11:47.108Z,7.40
2018-12-14T13:20:14.121Z,7.70
2018-12-14T13:22:42.322Z,8.23
2018-12-14T13:25:23.288Z,9.60
2018-12-14T13:27:51.505Z,9.20
2018-12-14T13:30:23.636Z,7.90
2018-12-14T13:33:06.589Z,7.67
2018-12-14T13:38:37.295Z,8.13
2018-12-14T13:41:13.751Z,14.10
2018-12-14T13:43:48.278Z,10.10
2018-12-14T13:46:35.081Z,10.47
2018-12-14T13:49:09.613Z,6.97
2018-12-14T13:51:50.163Z,6.87
2018-12-14T13:54:24.180Z,7.60
2018-12-14T13:56:56.113Z,7.20
2018-12-14T13:59:47.105Z,6.50
2018-12-14T14:05:15.303Z,7.67
2018-12-14T14:07:45.329Z,8.07
2018-12-14T14:10:17.001Z,8.60
2018-12-14T14:12:49.016Z,7.83
2018-12-14T14:15:25.529Z,7.73
2018-12-14T14:20:52.638Z,8.20
2018-12-14T14:26:23.665Z,9.70
2018-12-14T14:28:59.780Z,11.47
2018-12-14T14:31:30.144Z,9.87
2018-12-14T14:34:04.356Z,11.83
2018-12-14T14:39:44.849Z,16.90
2018-12-14T14:42:22.914Z,9.17
2018-12-14T14:44:59.753Z,15.50
2018-12-14T14:47:33.079Z,9.80
2018-12-14T14:50:02.683Z,14.13
2018-12-14T14:52:34.861Z,8.07
2018-12-14T14:55:11.568Z,9.77
2018-12-14T14:57:49.703Z,9.90
2018-12-14T15:00:19.093Z,9.83
2018-12-14T15:02:58.158Z,10.37
2018-12-14T15:05:35.826Z,10.00
2018-12-14T15:08:09.814Z,10.97
2018-12-14T15:10:41.781Z,9.33
2018-12-14T15:13:11.769Z,11.63
2018-12-14T15:15:43.040Z,18.50
2018-12-14T15:18:25.538Z,10.70
2018-12-14T15:21:13.582Z,10.20
2018-12-14T15:23:46.816Z,15.87
2018-12-14T15:26:19.244Z,9.70
2018-12-14T15:28:53.240Z,10.73
2018-12-14T15:31:24.660Z,10.90
2018-12-14T15:34:05.094Z,10.47
2018-12-14T15:36:35.499Z,23.40
2018-12-14T15:42:03.315Z,19.33
2018-12-14T15:44:37.465Z,36.23
2018-12-14T15:47:07.188Z,19.70
2018-12-14T15:49:41.864Z,18.83
2018-12-14T15:52:15.717Z,26.93
2018-12-14T15:54:49.469Z,18.67
2018-12-14T15:57:21.685Z,19.17
2018-12-14T15:59:51.229Z,11.53
2018-12-14T16:02:27.832Z,9.53
2018-12-14T16:05:01.658Z,10.07
2018-12-14T16:07:35.604Z,8.63
2018-12-14T16:10:19.805Z,9.20
2018-12-14T16:12:51.818Z,8.60
2018-12-14T16:15:24.351Z,8.67
2018-12-14T16:18:11.026Z,13.80
2018-12-14T16:20:47.126Z,12.23
2018-12-14T16:23:21.212Z,13.20
2018-12-14T16:25:52.927Z,10.73
2018-12-14T16:28:23.057Z,10.27
2018-12-14T16:31:03.927Z,9.73
2018-12-14T16:33:38.502Z,9.83
2018-12-14T16:36:20.236Z,10.87
2018-12-14T16:39:10.611Z,9.67
2018-12-14T16:41:47.053Z,10.10
2018-12-14T16:44:19.583Z,9.90
2018-12-14T16:47:03.481Z,10.90
2018-12-14T16:49:38.035Z,11.67
2018-12-14T16:52:14.205Z,10.80
2018-12-14T16:54:52.017Z,11.27
2018-12-14T16:57:26.441Z,9.43
2018-12-14T17:00:01.216Z,10.07
2018-12-14T17:02:39.669Z,10.87
2018-12-14T17:05:13.305Z,12.73
2018-12-14T17:07:43.018Z,12.33
2018-12-14T17:10:19.797Z,14.37
2018-12-14T17:12:51.201Z,14.47
2018-12-14T17:15:33.233Z,14.80
2018-12-14T17:18:12.356Z,15.70
2018-12-14T17:20:45.427Z,12.93
2018-12-14T17:23:23.677Z,10.80
2018-12-14T17:25:58.226Z,8.43
2018-12-14T17:28:28.370Z,9.73
2018-12-14T17:34:08.052Z,8.40
2018-12-14T17:39:41.640Z,8.37
2018-12-14T17:42:15.498Z,8.83
2018-12-14T17:50:43.837Z,8.27
2018-12-14T17:56:13.555Z,8.97
2018-12-14T17:58:47.448Z,9.50
2018-12-14T18:01:16.118Z,9.23
2018-12-14T18:03:53.876Z,9.07
2018-12-14T18:06:40.408Z,8.63
2018-12-14T18:12:05.793Z,9.63
2018-12-14T18:14:37.540Z,10.10
2018-12-14T18:17:09.011Z,10.63
2018-12-14T18:19:39.408Z,8.60
2018-12-14T18:22:15.920Z,9.67
2018-12-14T18:24:46.266Z,10.13
2018-12-14T18:27:24.746Z,11.37
2018-12-14T18:29:58.706Z,11.63
2018-12-14T18:32:39.523Z,11.80
2018-12-14T18:35:11.482Z,11.93
2018-12-14T18:37:43.210Z,12.33
2018-12-14T18:40:13.614Z,11.80
2018-12-14T18:42:48.210Z,10.77
2018-12-14T18:45:20.404Z,11.17
2018-12-14T18:47:58.390Z,10.30
2018-12-14T18:53:22.033Z,9.90
2018-12-14T18:56:00.293Z,11.87
2018-12-14T18:58:35.093Z,11.73
2018-12-14T19:01:04.638Z,10.83
2018-12-14T19:03:34.677Z,10.87
2018-12-14T19:06:04.839Z,11.77
2018-12-14T19:08:43.329Z,11.93
2018-12-14T19:11:24.090Z,12.03
2018-12-14T19:13:58.704Z,11.83
2018-12-14T19:16:36.844Z,11.23
2018-12-14T19:19:11.030Z,12.17
2018-12-14T19:21:43.119Z,12.03
2018-12-14T19:24:14.682Z,12.23
2018-12-14T19:26:46.688Z,11.97
2018-12-14T19:29:20.976Z,11.53
2018-12-14T19:31:55.115Z,10.90
2018-12-14T19:37:22.486Z,11.70
2018-12-14T19:40:04.861Z,12.37
2018-12-14T19:42:45.791Z,12.47
2018-12-14T19:45:15.685Z,11.17
2018-12-14T19:51:04.080Z,12.80
2018-12-14T19:53:38.283Z,12.10
2018-12-14T19:56:14.370Z,13.00
2018-12-14T19:59:05.215Z,12.57
2018-12-14T20:01:39.292Z,9.83
2018-12-14T20:04:13.349Z,12.40
2018-12-14T20:06:44.985Z,11.90
2018-12-14T20:09:17.217Z,10.37
2018-12-14T20:11:51.607Z,11.83
2018-12-14T20:14:29.604Z,12.63
2018-12-14T20:17:01.569Z,11.67
2018-12-14T20:19:33.814Z,10.67
2018-12-14T20:22:08.105Z,12.40
2018-12-14T20:24:39.849Z,10.70
2018-12-14T20:27:11.436Z,11.40
2018-12-14T20:29:47.164Z,12.00
2018-12-14T20:32:21.340Z,13.20
2018-12-14T20:37:48.999Z,11.70
2018-12-14T20:40:20.764Z,11.47
2018-12-14T20:42:52.892Z,12.40
2018-12-14T20:48:18.039Z,11.53
2018-12-14T20:50:52.626Z,10.37
2018-12-14T20:53:26.652Z,10.17
2018-12-14T20:55:56.227Z,10.77
2018-12-14T20:58:30.630Z,10.73
2018-12-14T21:01:06.825Z,11.33
2018-12-14T21:03:38.893Z,11.13
2018-12-14T21:06:08.678Z,11.67
2018-12-14T21:08:38.896Z,10.97
2018-12-14T21:14:19.060Z,11.30
2018-12-14T21:16:53.615Z,10.97
2018-12-14T21:19:28.759Z,10.47
2018-12-14T21:21:58.989Z,10.73
2018-12-14T21:24:29.105Z,11.67
2018-12-14T21:29:52.081Z,12.00
2018-12-14T21:32:28.702Z,10.57
2018-12-14T21:37:56.895Z,15.73
2018-12-14T21:40:27.083Z,14.97
2018-12-14T21:43:01.540Z,14.20
2018-12-14T21:45:35.594Z,11.43
2018-12-14T21:48:07.546Z,12.83
2018-12-14T21:50:39.884Z,13.23
2018-12-14T21:53:20.837Z,11.20
2018-12-14T21:58:55.767Z,12.47
2018-12-14T22:01:25.002Z,13.63
2018-12-14T22:03:56.268Z,13.90
2018-12-14T22:06:30.932Z,41.23
2018-12-14T22:09:02.705Z,29.53
2018-12-14T22:11:37.059Z,18.93
2018-12-14T22:14:13.317Z,24.93
2018-12-14T22:16:44.600Z,22.30
2018-12-14T22:19:18.442Z,34.60
2018-12-14T22:21:49.988Z,22.77
2018-12-14T22:24:22.184Z,21.40
2018-12-14T22:26:55.841Z,22.73
2018-12-14T22:29:27.460Z,16.37
2018-12-14T22:31:56.893Z,23.13
2018-12-14T22:34:28.378Z,46.30
2018-12-14T22:37:00.092Z,48.30
2018-12-14T22:39:34.068Z,27.03
2018-12-14T22:42:06.159Z,26.87
2018-12-14T22:44:38.249Z,27.10
2018-12-14T22:47:15.006Z,20.07
2018-12-14T22:49:49.498Z,20.43
2018-12-14T22:52:29.813Z,18.13
2018-12-14T22:55:01.846Z,21.67
2018-12-14T22:57:33.076Z,18.17
2018-12-14T23:00:06.817Z,16.50
2018-12-14T23:02:38.381Z,15.80
2018-12-14T23:05:21.125Z,15.87
2018-12-14T23:07:51.363Z,15.63
2018-12-14T23:10:29.360Z,17.27
2018-12-14T23:13:05.842Z,12.80
2018-12-14T23:15:39.813Z,12.10
2018-12-14T23:18:13.844Z,13.60
2018-12-14T23:23:57.312Z,14.07
2018-12-14T23:26:44.084Z,14.00
2018-12-14T23:29:18.335Z,14.00
2018-12-14T23:34:56.630Z,16.67
2018-12-14T23:37:30.852Z,15.07
2018-12-14T23:40:02.365Z,11.90
2018-12-14T23:42:34.391Z,11.77
2018-12-14T23:45:06.635Z,11.27
2018-12-14T23:47:38.331Z,10.23
2018-12-14T23:50:12.824Z,10.30
2018-12-14T23:52:44.733Z,10.73
2018-12-14T23:55:19.195Z,10.77
2018-12-14T23:57:53.824Z,10.13
